Time;durP1;ratioP1;P1;durP2;ratioP2;P2;SDS_P1;SDS_P2;PMS_P1;PMS_P2;Temp;Humidity;BMP_temperature;BMP_pressure;BME280_temperature;BME280_humidity;BME280_pressure;Samples;Min_cycle;Max_cycle;Signal;HPM_P1;HPM_P2
2021/08/13 00:01:42;;;;;;;8.20;7.50;;;21.90;99.90;;;;;;5051209;28;20312;-82
2021/08/13 00:04:09;;;;;;;8.07;7.27;;;21.90;99.90;;;;;;5033413;28;20176;-82
2021/08/13 00:06:40;;;;;;;8.60;7.00;;;21.80;99.90;;;;;;5017133;28;21098;-82
2021/08/13 00:09:09;;;;;;;8.10;7.00;;;21.90;99.90;;;;;;5033509;28;20577;-82
2021/08/13 00:11:40;;;;;;;7.27;6.57;;;21.90;99.90;;;;;;5051335;28;20567;-82
2021/08/13 00:14:06;;;;;;;8.00;7.20;;;21.90;99.90;;;;;;5033569;28;20682;-82
2021/08/13 00:16:33;;;;;;;7.80;7.00;;;21.90;99.90;;;;;;5033352;28;20600;-82
2021/08/13 00:19:00;;;;;;;7.50;6.73;;;21.90;99.90;;;;;;5033480;28;20571;-81
2021/08/13 00:21:27;;;;;;;7.00;6.30;;;22.00;99.90;;;;;;5051231;28;20948;-82
2021/08/13 00:23:52;;;;;;;8.10;6.50;;;22.00;99.90;;;;;;5033625;28;21157;-82
2021/08/13 00:26:18;;;;;;;7.80;7.07;;;22.00;99.90;;;;;;5033156;28;20580;-82
2021/08/13 00:28:44;;;;;;;7.73;7.03;;;22.10;99.90;;;;;;5052869;28;20529;-82
2021/08/13 00:31:09;;;;;;;7.53;6.83;;;22.10;99.90;;;;;;5052634;28;20950;-81
2021/08/13 00:33:36;;;;;;;7.60;6.80;;;22.20;99.90;;;;;;5033844;28;20207;-81
2021/08/13 00:36:02;;;;;;;9.70;7.83;;;22.20;99.90;;;;;;5033706;28;20617;-81
2021/08/13 00:38:30;;;;;;;9.23;8.00;;;22.20;99.90;;;;;;5020156;28;20575;-81
2021/08/13 00:40:56;;;;;;;8.73;7.90;;;22.20;99.90;;;;;;5035712;28;20658;-81
2021/08/13 00:43:25;;;;;;;8.97;8.07;;;22.20;99.90;;;;;;5034512;28;20951;-81
2021/08/13 00:45:51;;;;;;;9.07;7.00;;;22.20;99.90;;;;;;5033704;28;20574;-81
2021/08/13 00:48:19;;;;;;;7.87;6.93;;;22.20;99.90;;;;;;5033257;28;20556;-81
2021/08/13 00:50:50;;;;;;;7.33;6.37;;;22.20;99.90;;;;;;5033483;28;20670;-82
2021/08/13 00:53:18;;;;;;;8.87;7.00;;;22.20;99.90;;;;;;5032698;28;20630;-82
2021/08/13 00:55:50;;;;;;;7.93;6.97;;;22.20;99.90;;;;;;5032875;28;20982;-82
2021/08/13 00:58:36;;;;;;;6.73;6.00;;;22.20;99.90;;;;;;5020043;28;20568;-82
2021/08/13 01:01:22;;;;;;;6.77;6.00;;;22.20;99.90;;;;;;5033369;28;21355;-81
2021/08/13 01:03:48;;;;;;;8.07;6.97;;;22.20;99.90;;;;;;5020714;28;20651;-82
2021/08/13 01:06:17;;;;;;;6.37;5.77;;;22.10;99.90;;;;;;5038936;28;20595;-82
2021/08/13 01:08:45;;;;;;;8.20;5.40;;;22.10;99.90;;;;;;5037121;28;20528;-82
2021/08/13 01:11:34;;;;;;;6.23;5.63;;;22.10;99.90;;;;;;5020279;28;20568;-82
2021/08/13 01:14:09;;;;;;;6.90;5.90;;;22.10;99.90;;;;;;5036808;28;20572;-82
2021/08/13 01:16:42;;;;;;;6.50;5.83;;;22.00;99.90;;;;;;5036816;28;21176;-81
2021/08/13 01:19:15;;;;;;;6.80;6.10;;;22.00;99.90;;;;;;5036789;28;20567;-82
2021/08/13 01:21:43;;;;;;;7.90;6.07;;;22.00;99.90;;;;;;5036423;28;20631;-81
2021/08/13 01:24:16;;;;;;;6.90;6.30;;;21.90;99.90;;;;;;5054291;28;20606;-80
2021/08/13 01:27:00;;;;;;;6.97;6.30;;;21.80;99.90;;;;;;5054341;28;20605;-81
2021/08/13 01:29:54;;;;;;;9.83;6.70;;;21.80;99.90;;;;;;5036451;28;20571;-81
2021/08/13 01:32:38;;;;;;;7.53;6.70;;;21.70;99.90;;;;;;5036521;28;20602;-81
2021/08/13 01:35:14;;;;;;;7.30;6.60;;;21.70;99.90;;;;;;5036396;28;20559;-81
2021/08/13 01:37:46;;;;;;;6.67;5.97;;;21.60;99.90;;;;;;5036504;28;20568;-81
2021/08/13 01:40:14;;;;;;;6.40;5.80;;;21.60;99.90;;;;;;5020982;28;20970;-81
2021/08/13 01:42:43;;;;;;;7.00;6.27;;;21.60;99.90;;;;;;5044303;28;20627;-81
2021/08/13 01:45:10;;;;;;;5.53;5.03;;;21.50;99.90;;;;;;5019571;28;21209;-81
2021/08/13 01:47:41;;;;;;;5.80;5.30;;;21.50;99.90;;;;;;5036086;28;20654;-81
2021/08/13 01:50:08;;;;;;;6.43;5.83;;;21.40;99.90;;;;;;5054215;28;20617;-81
2021/08/13 01:52:36;;;;;;;7.87;6.20;;;21.50;99.90;;;;;;5019419;28;20615;-81
2021/08/13 01:55:03;;;;;;;8.80;6.57;;;21.40;99.90;;;;;;5035866;28;20571;-81
2021/08/13 01:57:33;;;;;;;7.83;6.17;;;21.40;99.90;;;;;;5035852;28;20583;-81
2021/08/13 02:00:00;;;;;;;7.00;5.80;;;21.30;99.90;;;;;;5036054;28;20578;-81
2021/08/13 02:02:28;;;;;;;6.90;6.20;;;21.30;99.90;;;;;;5035532;28;21017;-81
2021/08/13 02:04:54;;;;;;;10.17;7.60;;;21.30;99.90;;;;;;5019136;28;21142;-81
2021/08/13 02:07:21;;;;;;;7.13;6.43;;;21.20;99.90;;;;;;5035682;28;20629;-81
2021/08/13 02:09:48;;;;;;;6.50;5.90;;;21.20;99.90;;;;;;5035144;28;20562;-81
2021/08/13 02:12:14;;;;;;;6.87;6.27;;;21.20;99.90;;;;;;5018427;28;20608;-82
2021/08/13 02:14:41;;;;;;;7.33;6.60;;;21.20;99.90;;;;;;5019114;28;20571;-81
2021/08/13 02:17:16;;;;;;;9.40;5.60;;;21.20;99.90;;;;;;5019123;28;20670;-81
2021/08/13 02:20:12;;;;;;;6.20;5.60;;;21.20;99.90;;;;;;5040198;28;20570;-82
2021/08/13 02:22:39;;;;;;;6.33;5.60;;;21.20;99.90;;;;;;5015456;28;20674;-81
2021/08/13 02:25:06;;;;;;;7.30;6.20;;;21.10;99.90;;;;;;5020012;28;20579;-81
2021/08/13 02:27:32;;;;;;;8.83;6.70;;;21.10;99.90;;;;;;5003182;28;21167;-81
2021/08/13 02:29:58;;;;;;;6.70;5.23;;;21.10;99.90;;;;;;5035197;28;20622;-81
2021/08/13 02:32:29;;;;;;;6.40;5.80;;;21.10;99.90;;;;;;5019110;28;20607;-81
2021/08/13 02:34:55;;;;;;;7.27;6.27;;;21.10;99.90;;;;;;5035002;28;21141;-81
2021/08/13 02:37:38;;;;;;;6.60;6.00;;;21.00;99.90;;;;;;5019700;28;20970;-81
2021/08/13 02:40:05;;;;;;;7.00;5.97;;;21.00;99.90;;;;;;5035228;28;20579;-81
2021/08/13 02:42:57;;;;;;;6.87;6.17;;;21.00;99.90;;;;;;5053251;28;20623;-81
2021/08/13 02:45:24;;;;;;;5.60;5.10;;;20.90;99.90;;;;;;5034326;28;20560;-81
2021/08/13 02:47:57;;;;;;;5.83;5.23;;;21.00;99.90;;;;;;5053098;28;20592;-81
2021/08/13 02:50:26;;;;;;;6.07;5.47;;;21.00;99.90;;;;;;5035221;28;20897;-81
2021/08/13 02:53:05;;;;;;;7.57;6.63;;;21.00;99.90;;;;;;5035047;28;20665;-82
2021/08/13 02:55:46;;;;;;;6.90;6.00;;;21.00;99.90;;;;;;5038995;28;20559;-82
2021/08/13 02:58:17;;;;;;;8.00;6.50;;;20.90;99.90;;;;;;5038757;28;20946;-81
2021/08/13 03:00:44;;;;;;;6.73;6.13;;;21.00;99.90;;;;;;5018557;28;21122;-81
2021/08/13 03:03:12;;;;;;;6.97;5.73;;;21.00;99.90;;;;;;5034513;28;20663;-82
2021/08/13 03:05:46;;;;;;;6.53;5.73;;;21.00;99.90;;;;;;5034368;28;20928;-82
2021/08/13 03:08:12;;;;;;;6.10;5.50;;;21.00;99.90;;;;;;5034743;28;20626;-81
2021/08/13 03:10:39;;;;;;;6.63;5.60;;;20.90;99.90;;;;;;5034746;28;20567;-82
2021/08/13 03:13:08;;;;;;;6.00;4.93;;;20.90;99.90;;;;;;5034356;28;20222;-81
2021/08/13 03:15:34;;;;;;;8.17;5.77;;;20.90;99.90;;;;;;5034497;28;20564;-81
2021/08/13 03:18:02;;;;;;;7.10;5.67;;;20.90;99.90;;;;;;5034408;28;20576;-81
2021/08/13 03:20:28;;;;;;;8.90;5.53;;;20.90;99.90;;;;;;5034688;28;20567;-81
2021/08/13 03:23:06;;;;;;;7.50;5.87;;;20.90;99.90;;;;;;5017470;28;20666;-81
2021/08/13 03:25:32;;;;;;;6.30;5.70;;;20.90;99.90;;;;;;5034115;28;20670;-82
2021/08/13 03:28:00;;;;;;;8.80;6.03;;;20.90;99.90;;;;;;5034456;28;20630;-82
2021/08/13 03:30:27;;;;;;;6.40;5.80;;;20.90;99.90;;;;;;5034467;28;20671;-82
2021/08/13 03:32:53;;;;;;;7.00;6.30;;;20.90;99.90;;;;;;5038219;28;21044;-82
2021/08/13 03:35:21;;;;;;;5.60;4.70;;;20.80;99.90;;;;;;5017944;28;20230;-82
2021/08/13 03:37:46;;;;;;;5.67;5.13;;;20.90;99.90;;;;;;5051875;28;20666;-82
2021/08/13 03:40:12;;;;;;;6.03;5.43;;;20.90;99.90;;;;;;5034190;28;20525;-82
2021/08/13 03:42:43;;;;;;;6.73;5.00;;;20.90;99.90;;;;;;5034156;28;20280;-81
2021/08/13 03:45:09;;;;;;;6.83;6.13;;;20.90;99.90;;;;;;5033551;28;20580;-82
2021/08/13 03:47:35;;;;;;;5.83;5.23;;;20.90;99.90;;;;;;5034036;28;20169;-82
2021/08/13 03:50:02;;;;;;;7.60;6.60;;;20.80;99.90;;;;;;5033636;28;20599;-82
2021/08/13 03:52:27;;;;;;;10.50;5.90;;;20.80;99.90;;;;;;5033649;28;20607;-82
2021/08/13 03:54:53;;;;;;;5.97;5.37;;;20.80;99.90;;;;;;5016831;28;20568;-82
2021/08/13 03:57:24;;;;;;;5.87;5.27;;;20.80;99.90;;;;;;5033725;28;20248;-81
2021/08/13 03:59:49;;;;;;;6.47;5.60;;;20.80;99.90;;;;;;5016899;28;20679;-82
2021/08/13 04:02:15;;;;;;;5.87;5.30;;;20.80;99.90;;;;;;5033912;28;20565;-82
2021/08/13 04:04:41;;;;;;;5.43;4.93;;;20.70;99.90;;;;;;5033420;28;20168;-81
2021/08/13 04:07:07;;;;;;;10.63;5.77;;;20.80;99.90;;;;;;5034030;28;20535;-81
2021/08/13 04:09:32;;;;;;;5.87;5.17;;;20.80;99.90;;;;;;5020608;28;20189;-81
2021/08/13 04:11:59;;;;;;;7.20;5.90;;;20.70;99.90;;;;;;5033606;28;20189;-80
2021/08/13 04:14:28;;;;;;;11.50;7.40;;;20.70;99.90;;;;;;5033260;28;20608;-81
2021/08/13 04:16:56;;;;;;;6.50;5.90;;;20.70;99.90;;;;;;5033365;28;20587;-81
2021/08/13 04:19:23;;;;;;;6.13;5.53;;;20.60;99.90;;;;;;5033441;28;21114;-80
2021/08/13 04:21:49;;;;;;;6.90;6.20;;;20.60;99.90;;;;;;5033420;28;20638;-80
2021/08/13 04:24:15;;;;;;;6.10;5.60;;;20.60;99.90;;;;;;5000429;28;20209;-81
2021/08/13 04:26:41;;;;;;;6.37;5.77;;;20.60;99.90;;;;;;5033450;28;20560;-81
2021/08/13 04:29:07;;;;;;;10.10;5.60;;;20.60;99.90;;;;;;5033479;28;20570;-82
2021/08/13 04:31:33;;;;;;;6.90;6.30;;;20.60;99.90;;;;;;5033394;28;20169;-81
2021/08/13 04:33:59;;;;;;;7.90;5.87;;;20.60;99.90;;;;;;5052211;28;20567;-81
2021/08/13 04:36:27;;;;;;;7.57;5.80;;;20.60;99.90;;;;;;5037563;28;20180;-81
2021/08/13 04:38:53;;;;;;;8.47;5.70;;;20.60;99.90;;;;;;5021130;28;20595;-81
2021/08/13 04:41:20;;;;;;;6.43;5.50;;;20.60;99.90;;;;;;5038572;28;20616;-81
2021/08/13 04:43:46;;;;;;;8.47;6.10;;;20.60;99.90;;;;;;5038137;28;21146;-81
2021/08/13 04:46:13;;;;;;;6.37;5.73;;;20.60;99.90;;;;;;5040887;28;20638;-82
2021/08/13 04:48:40;;;;;;;6.37;5.27;;;20.60;99.90;;;;;;5020924;28;20571;-82
2021/08/13 04:51:06;;;;;;;5.07;4.57;;;20.70;99.90;;;;;;5037211;28;20578;-82
2021/08/13 04:53:33;;;;;;;6.37;5.77;;;20.80;99.90;;;;;;5020678;28;20677;-82
2021/08/13 04:55:59;;;;;;;6.97;6.27;;;20.80;99.90;;;;;;5020644;28;20586;-81
2021/08/13 04:58:25;;;;;;;6.70;5.47;;;20.80;99.90;;;;;;5055073;28;20560;-81
2021/08/13 05:00:56;;;;;;;6.43;5.77;;;20.80;99.90;;;;;;5037201;28;20169;-81
2021/08/13 05:03:22;;;;;;;7.13;5.37;;;20.90;99.90;;;;;;5036892;28;20966;-81
2021/08/13 05:05:49;;;;;;;6.10;5.60;;;20.90;99.90;;;;;;5036876;28;20567;-81
2021/08/13 05:08:15;;;;;;;7.73;6.33;;;21.00;99.90;;;;;;5036970;28;20563;-81
2021/08/13 05:10:43;;;;;;;7.17;5.97;;;21.00;99.90;;;;;;5037069;28;20563;-81
2021/08/13 05:13:08;;;;;;;6.43;5.80;;;21.00;99.90;;;;;;5036941;28;20626;-83
2021/08/13 05:15:37;;;;;;;7.27;6.53;;;21.10;99.90;;;;;;5054367;28;20621;-82
2021/08/13 05:18:04;;;;;;;6.50;5.40;;;21.10;99.90;;;;;;5036682;28;20579;-82
2021/08/13 05:20:30;;;;;;;6.40;5.80;;;21.10;99.90;;;;;;5036827;28;20165;-82
2021/08/13 05:23:00;;;;;;;8.30;6.77;;;21.10;99.90;;;;;;5023878;28;20758;-81
2021/08/13 05:25:26;;;;;;;5.97;5.47;;;21.10;99.90;;;;;;5036182;28;20567;-81
2021/08/13 05:27:52;;;;;;;7.10;6.50;;;21.20;99.90;;;;;;5036722;28;20571;-81
2021/08/13 05:30:19;;;;;;;6.90;5.90;;;21.30;99.90;;;;;;5020097;28;20204;-81
2021/08/13 05:32:49;;;;;;;6.60;6.00;;;21.30;99.90;;;;;;5036568;28;20604;-82
2021/08/13 05:35:15;;;;;;;8.40;6.20;;;21.30;99.90;;;;;;5019670;28;20567;-82
2021/08/13 05:37:44;;;;;;;6.50;5.27;;;21.40;99.90;;;;;;5036505;28;20593;-81
2021/08/13 05:40:10;;;;;;;9.93;6.70;;;21.50;99.90;;;;;;5021407;28;20573;-81
2021/08/13 05:42:37;;;;;;;7.10;6.10;;;21.60;99.90;;;;;;5016564;28;20628;-82
2021/08/13 05:45:05;;;;;;;6.83;6.23;;;21.70;99.90;;;;;;5016072;28;20596;-82
2021/08/13 05:47:33;;;;;;;5.87;5.27;;;21.80;99.90;;;;;;4999908;28;20576;-82
2021/08/13 05:49:59;;;;;;;6.20;5.60;;;21.90;99.90;;;;;;5015981;28;20573;-82
2021/08/13 05:52:25;;;;;;;7.43;6.17;;;22.00;99.90;;;;;;5016104;28;20610;-81
2021/08/13 05:54:51;;;;;;;6.40;5.80;;;22.10;99.90;;;;;;5016664;28;20575;-82
2021/08/13 05:57:17;;;;;;;8.10;5.97;;;22.10;99.90;;;;;;4999536;28;20572;-82
2021/08/13 05:59:43;;;;;;;6.53;5.93;;;22.10;99.90;;;;;;5003133;28;20669;-81
2021/08/13 06:02:09;;;;;;;7.00;6.30;;;22.20;99.90;;;;;;5016142;28;20735;-80
2021/08/13 06:04:34;;;;;;;8.20;6.43;;;22.30;99.90;;;;;;5033715;28;20224;-80
2021/08/13 06:07:00;;;;;;;7.90;7.07;;;22.40;99.90;;;;;;5033437;28;20260;-80
2021/08/13 06:09:26;;;;;;;7.03;6.30;;;22.60;99.90;;;;;;5033812;28;20537;-80
2021/08/13 06:11:52;;;;;;;8.03;7.23;;;22.70;99.90;;;;;;5015812;28;20623;-80
2021/08/13 06:14:18;;;;;;;8.60;7.00;;;22.90;99.90;;;;;;5015807;28;20937;-80
2021/08/13 06:16:43;;;;;;;7.63;6.83;;;23.00;99.90;;;;;;5015804;28;20220;-80
2021/08/13 06:19:09;;;;;;;9.13;6.80;;;23.20;99.90;;;;;;5015831;28;20169;-80
2021/08/13 06:21:36;;;;;;;9.43;7.43;;;23.40;99.90;;;;;;5015698;28;20308;-81
2021/08/13 06:24:04;;;;;;;6.33;5.73;;;23.60;99.90;;;;;;4998951;28;20580;-80
2021/08/13 06:26:30;;;;;;;7.23;5.80;;;23.90;99.90;;;;;;4999516;28;20576;-80
2021/08/13 06:28:57;;;;;;;6.80;6.07;;;24.20;99.90;;;;;;5000020;28;20595;-80
2021/08/13 06:31:23;;;;;;;7.77;7.00;;;24.30;99.90;;;;;;4999208;28;20588;-78
2021/08/13 06:33:50;;;;;;;9.23;6.10;;;24.40;99.90;;;;;;4999090;28;20213;-79
2021/08/13 06:36:16;;;;;;;7.47;6.77;;;24.60;99.90;;;;;;5003232;28;21340;-79
2021/08/13 06:38:41;;;;;;;7.00;6.10;;;24.80;99.90;;;;;;5016221;28;20580;-80
2021/08/13 06:41:07;;;;;;;8.07;7.10;;;24.90;99.90;;;;;;4999614;28;20646;-79
2021/08/13 06:43:51;;;;;;;6.20;5.60;;;25.00;99.90;;;;;;4998883;28;20174;-79
2021/08/13 06:46:17;;;;;;;7.77;6.97;;;25.30;99.90;;;;;;5015056;28;20565;-79
2021/08/13 06:48:43;;;;;;;6.90;6.30;;;25.50;99.90;;;;;;5033051;28;20561;-79
2021/08/13 06:51:10;;;;;;;8.40;6.20;;;25.60;99.90;;;;;;5015359;28;20265;-79
2021/08/13 06:53:37;;;;;;;9.00;7.17;;;25.70;99.90;;;;;;5016801;28;20634;-79
2021/08/13 06:56:04;;;;;;;6.60;5.93;;;25.80;99.90;;;;;;5018030;28;20976;-79
2021/08/13 06:58:29;;;;;;;7.23;6.27;;;25.80;99.90;;;;;;5002462;28;20584;-79
2021/08/13 07:00:55;;;;;;;6.90;5.80;;;25.90;99.90;;;;;;5018340;28;20182;-78
2021/08/13 07:03:21;;;;;;;6.17;5.57;;;25.90;99.90;;;;;;5014892;28;20212;-78
2021/08/13 07:05:47;;;;;;;6.50;5.90;;;25.90;99.90;;;;;;5013618;28;20574;-78
2021/08/13 07:08:13;;;;;;;6.73;6.13;;;25.90;99.90;;;;;;5023109;28;20622;-79
2021/08/13 07:10:49;;;;;;;8.33;5.80;;;25.90;99.90;;;;;;5027368;28;20173;-81
2021/08/13 07:13:15;;;;;;;6.67;5.97;;;26.00;99.90;;;;;;5036279;28;20739;-80
2021/08/13 07:15:40;;;;;;;6.57;5.77;;;26.00;99.90;;;;;;5043601;28;20192;-76
2021/08/13 07:18:07;;;;;;;7.90;6.97;;;26.00;99.90;;;;;;5052249;28;20520;-76
2021/08/13 07:20:33;;;;;;;10.10;6.60;;;26.00;99.90;;;;;;5034207;28;20639;-76
2021/08/13 07:23:02;;;;;;;9.47;6.40;;;26.10;99.90;;;;;;5021235;28;20276;-76
2021/08/13 07:25:29;;;;;;;8.83;7.77;;;26.30;99.90;;;;;;5000713;28;20587;-76
2021/08/13 07:27:54;;;;;;;12.97;8.77;;;26.70;99.90;;;;;;5051935;28;20552;-77
2021/08/13 07:30:21;;;;;;;9.17;8.17;;;27.20;99.90;;;;;;5033138;28;20220;-75
2021/08/13 07:32:47;;;;;;;11.30;9.60;;;27.60;99.90;;;;;;5017457;28;20623;-75
2021/08/13 07:35:15;;;;;;;9.97;9.03;;;28.20;99.90;;;;;;5033738;28;20701;-75
2021/08/13 07:37:48;;;;;;;10.33;9.33;;;28.70;99.90;;;;;;5033473;28;20560;-76
2021/08/13 07:40:14;;;;;;;10.37;9.37;;;29.00;99.90;;;;;;5033857;28;21256;-75
2021/08/13 07:42:41;;;;;;;11.43;10.33;;;29.10;99.90;;;;;;5051484;28;20544;-75
2021/08/13 07:45:09;;;;;;;11.67;10.67;;;29.10;99.90;;;;;;5017564;28;20169;-76
2021/08/13 07:47:35;;;;;;;12.40;11.10;;;29.20;99.90;;;;;;5017186;28;20594;-76
2021/08/13 07:50:03;;;;;;;11.30;10.10;;;29.30;99.90;;;;;;5036573;28;20567;-75
2021/08/13 07:52:28;;;;;;;12.23;10.47;;;29.30;99.90;;;;;;5033605;28;20652;-76
2021/08/13 07:54:55;;;;;;;11.87;10.67;;;29.50;99.90;;;;;;5017384;28;20571;-75
2021/08/13 07:57:21;;;;;;;14.73;10.57;;;29.90;99.90;;;;;;5033519;28;20563;-76
2021/08/13 07:59:49;;;;;;;13.70;12.40;;;30.20;99.90;;;;;;5029964;28;20634;-77
2021/08/13 08:02:18;;;;;;;13.80;12.33;;;30.50;99.90;;;;;;5017362;28;20636;-77
2021/08/13 08:04:45;;;;;;;15.53;11.63;;;30.60;99.90;;;;;;5046691;28;20987;-79
2021/08/13 08:07:11;;;;;;;13.27;12.13;;;30.70;99.90;;;;;;5050124;28;20161;-80
2021/08/13 08:09:37;;;;;;;14.07;12.73;;;30.90;99.90;;;;;;5030431;28;20595;-80
2021/08/13 08:12:03;;;;;;;13.50;12.27;;;31.00;99.90;;;;;;5031071;28;20607;-80
2021/08/13 08:14:28;;;;;;;13.90;12.67;;;31.20;99.90;;;;;;5034944;28;20169;-81
2021/08/13 08:16:54;;;;;;;13.63;12.30;;;31.50;99.90;;;;;;5029822;28;20612;-80
2021/08/13 08:19:20;;;;;;;14.10;12.80;;;31.90;99.90;;;;;;5031007;28;20244;-80
2021/08/13 08:21:45;;;;;;;15.40;14.10;;;32.30;99.90;;;;;;5031134;28;20204;-80
2021/08/13 08:24:12;;;;;;;14.07;12.63;;;32.50;99.90;;;;;;5016816;28;20166;-80
2021/08/13 08:26:41;;;;;;;17.47;15.87;;;32.70;99.90;;;;;;5048232;28;20174;-79
2021/08/13 08:29:08;;;;;;;24.60;16.30;;;32.70;99.90;;;;;;5013534;28;21016;-80
2021/08/13 08:31:34;;;;;;;17.93;16.37;;;32.60;99.90;;;;;;5013023;28;20593;-80
2021/08/13 08:34:00;;;;;;;19.10;17.40;;;32.40;99.90;;;;;;5013274;28;20561;-80
2021/08/13 08:36:25;;;;;;;16.17;14.60;;;32.40;99.90;;;;;;5031082;28;20581;-80
2021/08/13 08:38:51;;;;;;;17.67;16.07;;;32.60;99.90;;;;;;5031126;28;20266;-80
2021/08/13 08:41:17;;;;;;;17.03;15.43;;;32.90;99.90;;;;;;5031367;28;20256;-80
2021/08/13 08:43:43;;;;;;;16.50;14.90;;;33.10;99.90;;;;;;5030959;28;20208;-80
2021/08/13 08:46:10;;;;;;;15.97;14.47;;;33.40;99.90;;;;;;5029311;28;20582;-80
2021/08/13 08:48:37;;;;;;;16.33;14.63;;;33.70;99.90;;;;;;5013561;28;20177;-81
2021/08/13 08:51:05;;;;;;;16.43;14.57;;;33.90;99.90;;;;;;5031044;28;21145;-80
2021/08/13 08:53:32;;;;;;;15.37;13.80;;;34.30;99.90;;;;;;5013321;28;20644;-80
2021/08/13 08:55:59;;;;;;;15.77;14.03;;;34.30;99.00;;;;;;5012937;28;20583;-80
2021/08/13 08:58:28;;;;;;;15.07;13.03;;;34.20;98.50;;;;;;5013502;28;20574;-80
2021/08/13 09:00:53;;;;;;;13.97;12.67;;;34.20;97.50;;;;;;5030950;28;20562;-83
2021/08/13 09:03:20;;;;;;;14.50;13.20;;;34.00;97.10;;;;;;5031920;28;21229;-83
2021/08/13 09:05:47;;;;;;;14.83;13.30;;;33.90;96.50;;;;;;5012830;28;20210;-83
2021/08/13 09:08:12;;;;;;;15.27;13.80;;;33.60;96.00;;;;;;5031053;28;20625;-83
2021/08/13 09:10:41;;;;;;;14.30;12.80;;;33.50;95.90;;;;;;5030965;28;20565;-83
2021/08/13 09:13:09;;;;;;;12.90;11.70;;;33.30;95.90;;;;;;5031059;28;20219;-83
2021/08/13 09:15:37;;;;;;;13.10;11.80;;;33.10;95.90;;;;;;5043699;28;20582;-83
2021/08/13 09:18:17;;;;;;;14.53;11.20;;;33.00;95.90;;;;;;5050771;28;20569;-83
2021/08/13 09:20:57;;;;;;;13.47;12.10;;;32.80;95.40;;;;;;5053146;28;20592;-83
2021/08/13 09:23:36;;;;;;;13.07;11.77;;;32.80;95.60;;;;;;5036493;28;20755;-83
2021/08/13 09:26:13;;;;;;;13.07;11.07;;;32.90;95.50;;;;;;5054012;28;20902;-83
2021/08/13 09:29:02;;;;;;;13.10;11.90;;;32.80;95.20;;;;;;5054606;28;20970;-83
2021/08/13 09:31:40;;;;;;;12.47;11.30;;;32.70;95.10;;;;;;5036371;28;20571;-83
2021/08/13 09:34:12;;;;;;;12.67;11.47;;;32.70;95.20;;;;;;5036427;28;20572;-83
2021/08/13 09:36:51;;;;;;;14.63;13.20;;;32.60;94.80;;;;;;5036324;28;20577;-83
2021/08/13 09:39:24;;;;;;;12.30;11.30;;;32.50;94.60;;;;;;5038160;28;20598;-83
2021/08/13 09:41:52;;;;;;;13.00;11.80;;;32.40;94.80;;;;;;5036003;28;20642;-82
2021/08/13 09:44:33;;;;;;;12.33;10.37;;;32.60;95.00;;;;;;5047705;28;20585;-83
2021/08/13 09:47:04;;;;;;;12.23;11.03;;;32.80;95.10;;;;;;5035442;28;21106;-83
2021/08/13 09:49:35;;;;;;;11.07;9.97;;;33.00;95.00;;;;;;5056351;28;20578;-82
2021/08/13 09:52:15;;;;;;;9.90;9.00;;;33.10;93.60;;;;;;5053751;28;20686;-84
2021/08/13 09:54:44;;;;;;;7.03;6.33;;;32.90;92.90;;;;;;5035990;28;21249;-85
2021/08/13 09:57:12;;;;;;;7.83;7.00;;;33.10;93.60;;;;;;5019495;28;20685;-85
2021/08/13 09:59:56;;;;;;;8.57;7.80;;;33.30;93.60;;;;;;5054155;28;21044;-85
2021/08/13 10:02:22;;;;;;;9.10;8.30;;;33.50;93.10;;;;;;5035951;28;20643;-85
2021/08/13 10:04:48;;;;;;;9.27;8.43;;;33.70;92.80;;;;;;5035403;28;20580;-85
2021/08/13 10:07:20;;;;;;;11.37;9.53;;;33.90;92.40;;;;;;5034177;28;20168;-85
2021/08/13 10:09:48;;;;;;;8.40;7.67;;;34.10;92.50;;;;;;4999625;28;20224;-85
2021/08/13 10:12:15;;;;;;;8.70;7.83;;;34.50;92.40;;;;;;5001110;28;20619;-85
2021/08/13 10:14:43;;;;;;;9.10;8.20;;;34.90;92.20;;;;;;5024966;28;21123;-85
2021/08/13 10:17:18;;;;;;;7.53;6.93;;;35.40;91.70;;;;;;5037605;28;20235;-86
2021/08/13 10:19:51;;;;;;;8.10;7.37;;;35.90;90.60;;;;;;5020263;28;20579;-82
2021/08/13 10:22:20;;;;;;;7.70;7.10;;;36.30;90.50;;;;;;5019411;28;20650;-85
2021/08/13 10:24:47;;;;;;;7.87;6.83;;;36.60;89.70;;;;;;5018994;28;20649;-84
2021/08/13 10:27:17;;;;;;;6.10;5.50;;;36.90;87.40;;;;;;5035551;28;20578;-85
2021/08/13 10:29:47;;;;;;;7.80;7.17;;;37.30;86.10;;;;;;5033788;28;20626;-85
2021/08/13 10:32:19;;;;;;;7.73;7.13;;;37.50;84.50;;;;;;5034635;28;20635;-85
2021/08/13 10:34:46;;;;;;;6.53;6.03;;;37.50;80.90;;;;;;5035223;28;20579;-85
2021/08/13 10:37:14;;;;;;;6.07;5.23;;;37.50;79.10;;;;;;5035435;28;20572;-86
2021/08/13 10:39:49;;;;;;;4.90;4.40;;;37.30;77.30;;;;;;5018825;28;20590;-85
2021/08/13 10:42:23;;;;;;;4.77;4.27;;;37.10;75.00;;;;;;5035367;28;20647;-85
2021/08/13 10:45:08;;;;;;;4.63;4.17;;;36.80;74.50;;;;;;5019464;28;20583;-81
2021/08/13 10:48:08;;;;;;;4.63;4.23;;;36.60;73.20;;;;;;5035813;28;20607;-83
2021/08/13 10:50:39;;;;;;;4.63;4.23;;;36.30;73.20;;;;;;5037025;28;20576;-80
2021/08/13 10:53:28;;;;;;;3.97;3.57;;;36.10;72.50;;;;;;5021135;28;20619;-81
2021/08/13 10:55:56;;;;;;;4.20;3.80;;;36.10;73.40;;;;;;5035091;28;20582;-80
2021/08/13 10:58:43;;;;;;;4.60;3.30;;;36.10;74.70;;;;;;5052746;28;20675;-80
2021/08/13 11:01:32;;;;;;;3.00;2.70;;;36.10;73.10;;;;;;5030052;28;20746;-80
2021/08/13 11:04:00;;;;;;;5.07;3.17;;;36.20;72.00;;;;;;5018717;28;20587;-80
2021/08/13 11:06:43;;;;;;;4.10;3.80;;;36.00;70.80;;;;;;5035126;28;20578;-80
2021/08/13 11:09:32;;;;;;;6.00;4.83;;;35.80;69.20;;;;;;5019195;28;20574;-80
2021/08/13 11:11:57;;;;;;;4.73;4.27;;;35.50;69.20;;;;;;5018586;28;20683;-80
2021/08/13 11:14:28;;;;;;;4.90;4.40;;;35.30;69.00;;;;;;5018504;28;21001;-80
2021/08/13 11:16:57;;;;;;;3.70;3.40;;;35.10;68.30;;;;;;5034928;28;20633;-80
2021/08/13 11:19:24;;;;;;;3.60;3.30;;;34.80;67.50;;;;;;5034969;28;20582;-80
2021/08/13 11:21:58;;;;;;;4.87;3.00;;;34.50;67.80;;;;;;5034759;28;20657;-80
2021/08/13 11:24:50;;;;;;;6.43;3.40;;;34.40;68.30;;;;;;5034942;28;20983;-80
2021/08/13 11:27:18;;;;;;;4.40;2.97;;;34.10;68.20;;;;;;5034773;28;21162;-80
2021/08/13 11:29:45;;;;;;;3.83;2.70;;;33.90;68.00;;;;;;5018977;28;20933;-80
2021/08/13 11:32:36;;;;;;;2.30;2.07;;;33.80;67.70;;;;;;5034661;28;20622;-80
2021/08/13 11:35:04;;;;;;;3.27;2.97;;;33.50;67.40;;;;;;5018244;28;20587;-82
2021/08/13 11:37:38;;;;;;;2.60;2.40;;;33.30;67.10;;;;;;5034670;28;20593;-81
2021/08/13 11:40:13;;;;;;;2.47;1.67;;;33.10;67.80;;;;;;5018463;28;20569;-82
2021/08/13 11:42:49;;;;;;;2.80;2.60;;;33.00;68.20;;;;;;5033930;28;20635;-82
2021/08/13 11:45:15;;;;;;;2.33;2.10;;;32.80;69.30;;;;;;5051893;28;20572;-82
2021/08/13 11:47:46;;;;;;;2.67;2.47;;;32.90;70.00;;;;;;5052178;28;20580;-82
2021/08/13 11:50:12;;;;;;;2.43;2.23;;;33.00;70.30;;;;;;5034405;28;20924;-82
2021/08/13 11:52:46;;;;;;;3.10;2.20;;;33.10;70.40;;;;;;5017788;28;20714;-82
2021/08/13 11:55:26;;;;;;;2.10;1.90;;;33.10;68.90;;;;;;5001603;28;20573;-81
2021/08/13 11:57:54;;;;;;;1.80;1.43;;;33.00;69.00;;;;;;5017819;28;20678;-82
2021/08/13 12:00:23;;;;;;;1.90;1.30;;;33.00;68.50;;;;;;5035146;28;20594;-84
2021/08/13 12:02:57;;;;;;;2.70;1.73;;;33.00;68.10;;;;;;5017604;28;20686;-83
2021/08/13 12:05:23;;;;;;;2.43;2.23;;;32.90;68.00;;;;;;5017426;28;20572;-83
2021/08/13 12:07:58;;;;;;;2.33;1.60;;;32.80;67.80;;;;;;5035954;28;20983;-83
2021/08/13 12:10:24;;;;;;;2.20;1.90;;;32.60;67.60;;;;;;5033495;28;20670;-83
2021/08/13 12:12:50;;;;;;;1.83;1.30;;;32.40;68.00;;;;;;5033715;28;20627;-83
2021/08/13 12:15:30;;;;;;;2.90;1.80;;;32.20;68.50;;;;;;5021904;28;20585;-83
2021/08/13 12:17:58;;;;;;;2.60;2.13;;;32.20;69.00;;;;;;5014019;28;20188;-84
2021/08/13 12:20:25;;;;;;;1.97;1.57;;;32.20;69.80;;;;;;5013503;28;20568;-83
2021/08/13 12:23:02;;;;;;;5.43;1.50;;;32.20;69.80;;;;;;5013967;28;21141;-83
2021/08/13 12:25:33;;;;;;;1.83;1.40;;;32.10;70.00;;;;;;5013299;28;20630;-83
2021/08/13 12:28:00;;;;;;;6.90;1.37;;;32.10;70.30;;;;;;4997705;28;20580;-83
2021/08/13 12:30:27;;;;;;;2.67;1.20;;;32.10;70.50;;;;;;5012396;28;20577;-83
2021/08/13 12:32:52;;;;;;;1.87;1.23;;;32.20;71.20;;;;;;5013750;28;20631;-84
2021/08/13 12:35:20;;;;;;;2.43;1.40;;;32.20;71.40;;;;;;5013498;28;20634;-83
2021/08/13 12:37:46;;;;;;;2.83;1.70;;;32.30;71.30;;;;;;5014915;28;20590;-84
2021/08/13 12:40:14;;;;;;;6.07;2.13;;;32.40;71.00;;;;;;5015591;28;21003;-85
2021/08/13 12:42:45;;;;;;;2.10;1.17;;;32.40;71.10;;;;;;5015729;28;20641;-83
2021/08/13 12:45:12;;;;;;;2.77;1.70;;;32.50;71.20;;;;;;5033889;28;20579;-84
2021/08/13 12:47:41;;;;;;;5.50;1.40;;;32.60;71.20;;;;;;5023749;28;20589;-83
2021/08/13 12:50:14;;;;;;;2.70;1.70;;;32.70;71.90;;;;;;5034332;28;21163;-84
2021/08/13 12:52:59;;;;;;;2.17;1.90;;;32.80;71.00;;;;;;5032116;28;20643;-84
2021/08/13 12:55:34;;;;;;;3.10;2.20;;;32.80;70.70;;;;;;5034096;28;21143;-83